Time;durP1;ratioP1;P1;durP2;ratioP2;P2;SDS_P1;SDS_P2;PMS_P1;PMS_P2;Temp;Humidity;BMP_temperature;BMP_pressure;BME280_temperature;BME280_humidity;BME280_pressure;Samples;Min_cycle;Max_cycle;Signal;HPM_P1;HPM_P2
2022/12/01 00:01:12;;;;;;;12.00;9.20;;;;;;;3.85;66.59;101813.45;106062;1310;22113;-80
2022/12/01 00:03:39;;;;;;;12.60;10.20;;;;;;;3.90;66.57;101812.45;106250;1315;22083;-82
2022/12/01 00:06:14;;;;;;;11.40;9.40;;;;;;;3.97;66.54;101814.45;106318;1314;22822;-81
2022/12/01 00:10:24;;;;;;;13.50;10.20;;;;;;;3.96;66.34;101818.27;106176;1315;22186;-83
2022/12/01 00:11:29;;;;;;;12.20;10.10;;;;;;;3.93;66.31;101819.74;106351;1315;22246;-84
2022/12/01 00:13:56;;;;;;;11.90;10.30;;;;;;;3.95;66.39;101817.86;106404;1315;22189;-81
2022/12/01 00:16:22;;;;;;;11.20;10.00;;;;;;;3.92;66.19;101820.38;106494;1309;22906;-80
2022/12/01 00:18:51;;;;;;;12.40;10.70;;;;;;;3.85;66.28;101821.47;106588;1304;22178;-81
2022/12/01 00:21:20;;;;;;;13.00;10.90;;;;;;;3.77;66.24;101819.23;106647;1304;22072;-79
2022/12/01 00:23:49;;;;;;;13.20;10.20;;;;;;;3.73;66.49;101825.17;107002;1304;22092;-80
2022/12/01 00:26:17;;;;;;;13.00;10.70;;;;;;;3.71;66.67;101828.23;107204;1299;22072;-79
2022/12/01 00:28:48;;;;;;;12.40;11.10;;;;;;;3.76;66.78;101827.02;107065;1304;22162;-78
2022/12/01 00:31:15;;;;;;;12.60;11.30;;;;;;;3.76;66.81;101823.38;106930;1304;22064;-78
2022/12/01 00:33:42;;;;;;;11.80;9.80;;;;;;;3.72;66.71;101822.17;106685;1310;22150;-79
2022/12/01 00:36:09;;;;;;;10.60;9.50;;;;;;;3.77;66.91;101822.88;106706;1308;22895;-82
2022/12/01 00:38:36;;;;;;;11.90;10.70;;;;;;;3.82;66.96;101816.81;106161;1315;22245;-82
2022/12/01 00:41:04;;;;;;;12.50;11.10;;;;;;;3.87;66.95;101817.91;106130;1315;23006;-79
2022/12/01 00:43:31;;;;;;;11.80;10.40;;;;;;;3.92;66.93;101814.95;106106;1315;22713;-86
2022/12/01 00:45:58;;;;;;;12.90;11.00;;;;;;;3.95;66.88;101812.14;106228;1315;22168;-79
2022/12/01 00:48:25;;;;;;;13.50;11.30;;;;;;;3.97;66.82;101806.45;106245;1315;22300;-84
2022/12/01 00:50:53;;;;;;;12.10;10.40;;;;;;;3.96;66.73;101811.30;106116;1302;22199;-84
2022/12/01 00:53:21;;;;;;;13.60;11.20;;;;;;;3.92;66.77;101807.29;106684;1301;22079;-84
2022/12/01 00:55:48;;;;;;;14.50;11.30;;;;;;;3.94;66.90;101804.42;106623;1307;22203;-84
2022/12/01 00:58:15;;;;;;;14.20;11.50;;;;;;;3.94;66.83;101802.16;106840;1302;22076;-84
2022/12/01 01:00:42;;;;;;;13.10;11.00;;;;;;;3.90;66.78;101798.66;106984;1291;22053;-84
2022/12/01 01:03:10;;;;;;;13.40;12.00;;;;;;;3.88;66.85;101803.83;107015;1307;22071;-84
2022/12/01 01:05:40;;;;;;;13.90;11.70;;;;;;;3.86;66.96;101799.55;107038;1307;22147;-82
2022/12/01 01:08:13;;;;;;;12.80;11.50;;;;;;;3.83;66.93;101795.41;107141;1307;22083;-83
2022/12/01 01:10:43;;;;;;;14.10;12.10;;;;;;;3.81;67.04;101796.90;107159;1299;22094;-83
2022/12/01 01:13:11;;;;;;;14.30;11.80;;;;;;;3.80;67.07;101794.09;107202;1305;22071;-82
2022/12/01 01:15:38;;;;;;;13.60;11.20;;;;;;;3.81;67.16;101789.23;107006;1306;22117;-82
2022/12/01 01:18:05;;;;;;;12.30;10.70;;;;;;;3.82;67.21;101785.44;107089;1299;22089;-79
2022/12/01 01:20:33;;;;;;;12.20;10.60;;;;;;;3.84;67.30;101786.77;107046;1307;22033;-78
2022/12/01 01:22:59;;;;;;;11.70;10.40;;;;;;;3.88;67.25;101789.02;107001;1307;22018;-78
2022/12/01 01:25:26;;;;;;;12.00;10.80;;;;;;;3.91;67.24;101787.75;107116;1307;22124;-77
2022/12/01 01:27:53;;;;;;;13.50;11.00;;;;;;;3.93;67.22;101786.96;107154;1288;22086;-78
2022/12/01 01:30:20;;;;;;;11.70;10.40;;;;;;;3.93;67.12;101783.30;107143;1307;22849;-76
2022/12/01 01:32:46;;;;;;;12.10;10.80;;;;;;;3.90;67.15;101779.66;107168;1299;22081;-79
2022/12/01 01:35:13;;;;;;;12.00;10.20;;;;;;;3.89;67.22;101786.45;107054;1307;22144;-79
2022/12/01 01:37:41;;;;;;;12.60;11.30;;;;;;;3.87;67.18;101789.16;106927;1306;22193;-80
2022/12/01 01:40:08;;;;;;;12.90;11.30;;;;;;;3.86;67.28;101792.08;107040;1307;22201;-79
2022/12/01 01:42:35;;;;;;;14.10;10.70;;;;;;;3.81;67.32;101789.79;106892;1307;22120;-81
2022/12/01 01:45:02;;;;;;;12.30;10.80;;;;;;;3.81;67.43;101788.90;106917;1307;22107;-80
2022/12/01 01:47:38;;;;;;;11.50;10.40;;;;;;;3.80;67.33;101791.81;106917;1307;22060;-79
2022/12/01 01:50:11;;;;;;;11.60;10.40;;;;;;;3.77;67.46;101790.80;106880;1307;22027;-81
2022/12/01 01:52:43;;;;;;;11.30;10.10;;;;;;;3.79;67.60;101792.64;106980;1305;22084;-83
2022/12/01 01:55:11;;;;;;;12.60;11.10;;;;;;;3.81;67.55;101793.41;106913;1306;22115;-82
2022/12/01 01:57:39;;;;;;;12.50;11.20;;;;;;;3.80;67.56;101795.83;106910;1307;22115;-82
2022/12/01 02:00:09;;;;;;;11.80;10.50;;;;;;;3.82;67.60;101788.95;106902;1305;22040;-81
2022/12/01 02:02:44;;;;;;;12.20;10.30;;;;;;;3.81;67.51;101789.42;107016;1306;22635;-81
2022/12/01 02:05:22;;;;;;;12.70;10.70;;;;;;;3.78;67.64;101787.73;107021;1306;22057;-82
2022/12/01 02:07:57;;;;;;;11.30;10.20;;;;;;;3.79;67.68;101790.38;106914;1304;22069;-79
2022/12/01 02:11:05;;;;;;;12.10;10.90;;;;;;;3.81;67.81;101791.16;107078;1304;22202;-80
2022/12/01 02:13:49;;;;;;;12.90;11.40;;;;;;;3.84;67.75;101792.19;107089;1304;22042;-79
2022/12/01 02:16:27;;;;;;;12.80;11.40;;;;;;;3.86;67.80;101793.45;106993;1305;22069;-78
2022/12/01 02:19:17;;;;;;;12.30;11.10;;;;;;;3.84;67.63;101790.22;107072;1304;22098;-83
2022/12/01 02:21:50;;;;;;;12.70;10.20;;;;;;;3.81;67.80;101789.77;106987;1304;22716;-83
2022/12/01 02:25:10;;;;;;;11.30;10.20;;;;;;;3.82;67.91;101788.23;107047;1304;22084;-84
2022/12/01 02:28:11;;;;;;;11.40;10.10;;;;;;;3.84;67.89;101789.02;106534;1304;22158;-77
2022/12/01 02:30:44;;;;;;;11.80;10.50;;;;;;;3.87;67.95;101784.77;106584;1311;22127;-76
2022/12/01 02:33:22;;;;;;;11.60;10.10;;;;;;;3.91;67.97;101786.34;107018;1304;22060;-76
2022/12/01 02:35:59;;;;;;;12.30;11.00;;;;;;;3.91;67.92;101778.86;107010;1304;22717;-76
2022/12/01 02:38:44;;;;;;;11.70;10.40;;;;;;;3.92;68.05;101779.39;107000;1305;22902;-77
2022/12/01 02:41:29;;;;;;;12.40;11.20;;;;;;;3.91;67.96;101779.03;107083;1296;22071;-78
2022/12/01 02:44:06;;;;;;;11.80;10.70;;;;;;;3.88;68.06;101780.31;107088;1304;22149;-77
2022/12/01 02:46:42;;;;;;;12.00;10.70;;;;;;;3.89;68.00;101777.71;106998;1304;22640;-77
2022/12/01 02:49:14;;;;;;;11.80;10.70;;;;;;;3.84;67.99;101778.06;106907;1304;22817;-77
2022/12/01 02:51:43;;;;;;;12.00;10.80;;;;;;;3.80;68.13;101779.45;106906;1304;22123;-77
2022/12/01 02:54:13;;;;;;;13.70;12.30;;;;;;;3.79;68.31;101778.67;106895;1299;22843;-77
2022/12/01 02:56:44;;;;;;;12.70;11.40;;;;;;;3.79;68.32;101778.90;107003;1304;22023;-80
2022/12/01 02:59:12;;;;;;;12.30;11.10;;;;;;;3.76;68.14;101779.98;106574;1312;22781;-80
2022/12/01 03:01:49;;;;;;;12.50;11.20;;;;;;;3.72;68.24;101780.15;106507;1312;22723;-80
2022/12/01 03:04:23;;;;;;;12.40;11.10;;;;;;;3.72;68.37;101777.73;106493;1312;22170;-80
2022/12/01 03:07:26;;;;;;;12.00;10.80;;;;;;;3.74;68.49;101780.75;106527;1312;22331;-79
2022/12/01 03:10:02;;;;;;;12.90;11.60;;;;;;;3.77;68.55;101773.55;106541;1312;22432;-78
2022/12/01 03:12:58;;;;;;;12.70;11.20;;;;;;;3.78;68.58;101773.79;106589;1311;22292;-78
2022/12/01 03:15:53;;;;;;;13.50;11.80;;;;;;;3.81;68.61;101773.21;106570;1312;22619;-80
2022/12/01 03:18:46;;;;;;;13.30;11.90;;;;;;;3.82;68.46;101772.19;106765;1308;22128;-81
2022/12/01 03:21:30;;;;;;;14.00;12.60;;;;;;;3.82;68.45;101770.97;106554;1312;22097;-81
2022/12/01 03:24:02;;;;;;;12.70;11.40;;;;;;;3.81;68.57;101770.95;106528;1312;22187;-79
2022/12/01 03:26:31;;;;;;;13.90;12.50;;;;;;;3.81;68.41;101766.42;106484;1312;22139;-79
2022/12/01 03:29:04;;;;;;;15.50;13.30;;;;;;;3.78;68.34;101768.21;106553;1310;22441;-79
2022/12/01 03:31:39;;;;;;;14.40;13.00;;;;;;;3.74;68.46;101769.63;105620;1318;22136;-78
2022/12/01 03:34:23;;;;;;;13.50;12.00;;;;;;;3.70;68.43;101768.77;105869;1318;22261;-79
2022/12/01 03:37:04;;;;;;;12.70;11.10;;;;;;;3.65;68.50;101770.31;105897;1317;22119;-81
2022/12/01 03:39:34;;;;;;;13.60;12.20;;;;;;;3.66;68.80;101770.33;106092;1313;23079;-81
2022/12/01 03:42:36;;;;;;;14.40;12.80;;;;;;;3.67;68.67;101768.29;106567;1316;22175;-81
2022/12/01 03:45:06;;;;;;;12.70;11.30;;;;;;;3.64;68.76;101768.50;106444;1312;22789;-79
2022/12/01 03:47:36;;;;;;;14.00;12.60;;;;;;;3.66;68.87;101766.00;106556;1311;22116;-79
2022/12/01 03:50:06;;;;;;;13.00;11.60;;;;;;;3.68;68.73;101764.85;106735;1307;22137;-77
2022/12/01 03:52:36;;;;;;;14.20;12.80;;;;;;;3.66;68.59;101763.55;106869;1307;22064;-77
2022/12/01 03:55:16;;;;;;;14.80;13.20;;;;;;;3.60;68.65;101764.52;106997;1305;22054;-77
2022/12/01 03:57:50;;;;;;;14.30;12.90;;;;;;;3.62;68.90;101765.27;106875;1305;22125;-75
2022/12/01 04:00:18;;;;;;;13.50;12.10;;;;;;;3.58;68.61;101763.38;106589;1312;22113;-80
2022/12/01 04:02:45;;;;;;;13.60;12.20;;;;;;;3.50;68.50;101765.84;106458;1312;22289;-81
2022/12/01 04:05:12;;;;;;;17.10;13.40;;;;;;;3.41;68.87;101764.63;106080;1313;22126;-80
2022/12/01 04:07:39;;;;;;;14.20;12.00;;;;;;;3.45;69.17;101768.96;106525;1312;22165;-80
2022/12/01 04:10:07;;;;;;;12.50;11.20;;;;;;;3.52;69.26;101767.83;106402;1312;22058;-79
2022/12/01 04:12:33;;;;;;;13.70;12.20;;;;;;;3.58;69.22;101764.30;105933;1316;22102;-78
2022/12/01 04:15:07;;;;;;;12.90;11.60;;;;;;;3.63;69.15;101763.04;106028;1313;22219;-79
2022/12/01 04:17:33;;;;;;;13.30;12.00;;;;;;;3.64;69.05;101764.67;106093;1313;22203;-81
2022/12/01 04:20:00;;;;;;;14.30;12.70;;;;;;;3.64;69.04;101764.88;106674;1310;23042;-79
2022/12/01 04:22:27;;;;;;;13.80;12.40;;;;;;;3.67;69.05;101764.45;106662;1310;22925;-78
2022/12/01 04:24:54;;;;;;;14.20;12.60;;;;;;;3.64;69.00;101765.54;106601;1310;22117;-79
2022/12/01 04:27:20;;;;;;;13.90;12.40;;;;;;;3.64;68.98;101762.23;106765;1309;22549;-78
2022/12/01 04:29:47;;;;;;;14.10;12.70;;;;;;;3.62;68.77;101757.09;106810;1311;22328;-78
2022/12/01 04:32:15;;;;;;;14.70;13.20;;;;;;;3.58;69.01;101760.59;106935;1307;22330;-79
2022/12/01 04:34:42;;;;;;;14.50;12.40;;;;;;;3.63;69.17;101763.95;106994;1304;22052;-78
2022/12/01 04:37:10;;;;;;;15.60;13.00;;;;;;;3.67;69.03;101763.09;106976;1307;22126;-78
2022/12/01 04:39:37;;;;;;;14.90;12.70;;;;;;;3.71;69.04;101762.00;106898;1304;22072;-78
2022/12/01 04:42:04;;;;;;;12.50;11.20;;;;;;;3.75;69.04;101763.92;106998;1307;22187;-79
2022/12/01 04:44:31;;;;;;;13.10;10.80;;;;;;;3.80;68.98;101768.13;106965;1307;22119;-77
2022/12/01 04:47:01;;;;;;;12.50;11.20;;;;;;;3.82;68.89;101767.33;106897;1306;22193;-76
2022/12/01 04:49:30;;;;;;;12.70;11.40;;;;;;;3.82;68.81;101773.27;106873;1306;22109;-82
2022/12/01 04:51:57;;;;;;;13.60;12.20;;;;;;;3.81;68.60;101771.13;107050;1306;22738;-80
2022/12/01 04:54:24;;;;;;;13.70;12.10;;;;;;;3.75;68.65;101771.76;106952;1304;22043;-79
2022/12/01 04:56:51;;;;;;;13.90;12.60;;;;;;;3.73;68.81;101772.52;106881;1307;22041;-79
2022/12/01 04:59:18;;;;;;;13.10;11.70;;;;;;;3.73;68.80;101773.06;106865;1305;22970;-80
2022/12/01 05:01:46;;;;;;;14.10;12.60;;;;;;;3.74;68.86;101776.23;106950;1304;22071;-77
2022/12/01 05:04:14;;;;;;;14.20;12.70;;;;;;;3.74;68.82;101772.59;106987;1304;22654;-80
2022/12/01 05:06:41;;;;;;;14.60;13.00;;;;;;;3.74;68.73;101775.35;106890;1305;22056;-76
2022/12/01 05:09:13;;;;;;;13.50;12.10;;;;;;;3.70;68.63;101779.06;106881;1307;22699;-78
2022/12/01 05:11:43;;;;;;;13.20;11.80;;;;;;;3.71;68.83;101780.15;107008;1305;22098;-78
2022/12/01 05:14:10;;;;;;;13.50;12.00;;;;;;;3.76;68.87;101780.84;106460;1309;22153;-79
2022/12/01 05:16:37;;;;;;;13.40;12.10;;;;;;;3.78;68.65;101778.84;106591;1309;22751;-79
2022/12/01 05:21:51;;;;;;;14.20;12.70;;;;;;;3.78;68.48;101776.91;106251;1313;22133;-80
2022/12/01 05:24:20;;;;;;;13.70;12.20;;;;;;;3.77;68.57;101777.95;106235;1314;22927;-78
2022/12/01 05:26:46;;;;;;;13.90;12.40;;;;;;;3.75;68.39;101778.52;106113;1313;22095;-77
2022/12/01 05:29:13;;;;;;;15.20;12.50;;;;;;;3.72;68.67;101773.89;106412;1313;22111;-79
2022/12/01 05:31:40;;;;;;;14.60;13.20;;;;;;;3.68;68.59;101773.73;105679;1317;22199;-77
2022/12/01 05:34:07;;;;;;;13.40;11.90;;;;;;;3.67;68.79;101773.02;105959;1316;22123;-77
2022/12/01 05:36:35;;;;;;;13.80;12.20;;;;;;;3.70;68.69;101771.73;106232;1316;22186;-77
2022/12/01 05:39:02;;;;;;;13.40;12.10;;;;;;;3.69;68.60;101777.46;106234;1315;22268;-77
2022/12/01 05:41:29;;;;;;;13.10;11.90;;;;;;;3.69;68.60;101779.71;106522;1311;22857;-78
2022/12/01 05:43:56;;;;;;;13.30;12.00;;;;;;;3.70;68.52;101774.36;106514;1311;22128;-78
2022/12/01 05:46:23;;;;;;;12.20;10.90;;;;;;;3.74;68.54;101778.50;106501;1311;22124;-78
2022/12/01 05:48:50;;;;;;;12.80;11.50;;;;;;;3.75;68.40;101779.59;106503;1312;22150;-77
2022/12/01 05:51:16;;;;;;;13.70;12.30;;;;;;;3.73;68.47;101782.11;106778;1307;22085;-76
2022/12/01 05:53:44;;;;;;;13.60;12.30;;;;;;;3.75;68.45;101783.23;106935;1297;22131;-85
2022/12/01 05:56:10;;;;;;;13.40;12.00;;;;;;;3.74;68.42;101784.23;106465;1310;22144;-78
2022/12/01 05:58:37;;;;;;;16.80;12.60;;;;;;;3.71;68.39;101781.35;106513;1304;22872;-77
2022/12/01 06:01:04;;;;;;;14.30;12.60;;;;;;;3.73;68.46;101780.02;106444;1310;22990;-80
2022/12/01 06:03:31;;;;;;;14.40;13.00;;;;;;;3.71;68.32;101782.39;106478;1310;22131;-79
2022/12/01 06:05:58;;;;;;;13.00;11.60;;;;;;;3.65;68.23;101785.11;106493;1310;22932;-79
2022/12/01 06:08:24;;;;;;;14.70;12.80;;;;;;;3.57;68.33;101786.34;106505;1309;22187;-79
2022/12/01 06:10:51;;;;;;;14.20;12.70;;;;;;;3.57;68.51;101784.09;106572;1310;22121;-79
2022/12/01 06:13:18;;;;;;;14.80;11.90;;;;;;;3.54;68.34;101783.25;106608;1310;22087;-80
2022/12/01 06:15:45;;;;;;;13.00;11.70;;;;;;;3.54;68.67;101783.25;106567;1310;22086;-80
2022/12/01 06:18:11;;;;;;;13.40;11.80;;;;;;;3.58;68.69;101786.04;106579;1301;22115;-85
2022/12/01 06:20:38;;;;;;;14.20;11.80;;;;;;;3.59;68.83;101785.73;106458;1310;22242;-81
2022/12/01 06:23:05;;;;;;;13.20;11.90;;;;;;;3.64;68.85;101780.53;106555;1310;22214;-82
2022/12/01 06:25:32;;;;;;;13.20;11.90;;;;;;;3.71;68.91;101778.04;106469;1310;22065;-83
2022/12/01 06:27:58;;;;;;;15.50;12.50;;;;;;;3.76;68.76;101775.80;106544;1304;22998;-82
2022/12/01 06:30:25;;;;;;;13.30;11.30;;;;;;;3.78;68.50;101777.77;106598;1310;22939;-83
2022/12/01 06:32:52;;;;;;;13.50;11.70;;;;;;;3.74;68.44;101775.71;106617;1310;22176;-82
2022/12/01 06:35:20;;;;;;;13.30;11.90;;;;;;;3.76;68.57;101781.73;106289;1310;22123;-82
2022/12/01 06:37:47;;;;;;;12.90;11.70;;;;;;;3.77;68.46;101780.54;106432;1310;22951;-85
2022/12/01 06:40:14;;;;;;;13.10;11.80;;;;;;;3.76;68.38;101778.21;106454;1311;22120;-84
2022/12/01 06:42:40;;;;;;;13.80;11.00;;;;;;;3.71;68.26;101779.77;106508;1309;22071;-83
2022/12/01 06:45:09;;;;;;;12.90;11.60;;;;;;;3.66;68.32;101776.63;106540;1310;22882;-84
2022/12/01 06:47:36;;;;;;;12.80;11.50;;;;;;;3.63;68.38;101780.50;106503;1298;22118;-83
2022/12/01 06:50:08;;;;;;;12.70;11.40;;;;;;;3.60;68.47;101783.50;106535;1310;22100;-83
2022/12/01 06:52:35;;;;;;;12.90;11.20;;;;;;;3.62;68.58;101780.62;106609;1304;22778;-84
2022/12/01 06:55:04;;;;;;;11.70;10.20;;;;;;;3.66;68.67;101775.39;107004;1294;22053;-84
2022/12/01 06:57:33;;;;;;;12.10;10.80;;;;;;;3.72;68.66;101777.72;106905;1304;22744;-84
2022/12/01 07:00:00;;;;;;;12.20;10.30;;;;;;;3.73;68.35;101779.88;106910;1307;22242;-84
2022/12/01 07:02:27;;;;;;;13.10;11.60;;;;;;;3.71;68.42;101775.92;107012;1304;22746;-83
2022/12/01 07:04:54;;;;;;;13.00;11.50;;;;;;;3.70;68.45;101777.48;106905;1304;22097;-84
2022/12/01 07:07:21;;;;;;;14.00;10.60;;;;;;;3.74;68.52;101776.06;106896;1304;22166;-83
2022/12/01 07:09:47;;;;;;;13.80;11.20;;;;;;;3.77;68.46;101782.95;106998;1304;22315;-84
2022/12/01 07:12:15;;;;;;;12.20;11.00;;;;;;;3.80;68.37;101780.15;106901;1301;22081;-83
2022/12/01 07:14:41;;;;;;;18.50;12.70;;;;;;;3.82;68.41;101779.18;106895;1304;22083;-83
2022/12/01 07:17:09;;;;;;;13.20;11.80;;;;;;;3.83;68.31;101774.67;106914;1304;22120;-87
2022/12/01 07:19:35;;;;;;;15.70;12.40;;;;;;;3.81;68.15;101773.75;107050;1304;22100;-80
2022/12/01 07:22:02;;;;;;;15.40;12.20;;;;;;;3.71;68.17;101772.98;107007;1304;22090;-83
2022/12/01 07:24:29;;;;;;;16.90;11.70;;;;;;;3.65;68.28;101775.19;107067;1300;22138;-83
2022/12/01 07:26:56;;;;;;;17.60;11.70;;;;;;;3.62;68.58;101775.06;107211;1304;22089;-84
2022/12/01 07:29:23;;;;;;;16.50;12.70;;;;;;;3.68;68.68;101775.66;107136;1304;22113;-84
2022/12/01 07:31:49;;;;;;;14.70;12.10;;;;;;;3.73;68.73;101776.39;107146;1304;22097;-82
2022/12/01 07:34:16;;;;;;;16.60;12.30;;;;;;;3.80;68.78;101777.16;107033;1304;22189;-84
2022/12/01 07:36:43;;;;;;;19.00;13.30;;;;;;;3.82;68.53;101776.39;107138;1304;22065;-83
2022/12/01 07:39:10;;;;;;;14.70;12.80;;;;;;;3.78;68.40;101779.19;107073;1304;22802;-86
2022/12/01 07:41:36;;;;;;;16.50;13.60;;;;;;;3.71;68.41;101782.23;107024;1304;22122;-84
2022/12/01 07:44:03;;;;;;;15.20;12.90;;;;;;;3.70;68.47;101781.84;107079;1301;22052;-83
2022/12/01 07:46:30;;;;;;;17.00;13.20;;;;;;;3.67;68.66;101782.23;107230;1304;22859;-83
2022/12/01 07:48:58;;;;;;;15.60;12.20;;;;;;;3.71;68.63;101781.19;107255;1303;22796;-83
2022/12/01 07:51:26;;;;;;;16.90;14.00;;;;;;;3.70;68.49;101775.20;107077;1301;22076;-84
2022/12/01 07:53:55;;;;;;;19.20;13.50;;;;;;;3.67;68.41;101780.17;106945;1304;22053;-83
2022/12/01 07:56:22;;;;;;;17.60;14.30;;;;;;;3.63;68.70;101773.17;106328;1310;22936;-83
2022/12/01 07:58:49;;;;;;;18.40;14.00;;;;;;;3.67;68.78;101778.21;105927;1315;22562;-84
2022/12/01 08:01:19;;;;;;;15.10;13.50;;;;;;;3.70;68.77;101778.02;106027;1316;22198;-83
2022/12/01 08:03:50;;;;;;;16.70;13.60;;;;;;;3.74;68.57;101778.31;105354;1315;1309986;-83
2022/12/01 08:06:18;;;;;;;18.70;13.60;;;;;;;3.75;68.71;101780.47;105943;1315;22693;-84
2022/12/01 08:08:45;;;;;;;21.20;14.10;;;;;;;3.81;68.81;101781.40;105928;1312;22187;-84
2022/12/01 08:11:15;;;;;;;14.60;12.80;;;;;;;3.85;68.63;101780.33;105905;1316;22091;-87
2022/12/01 08:13:42;;;;;;;16.60;13.10;;;;;;;3.87;68.49;101779.73;106000;1310;22541;-82
2022/12/01 08:16:12;;;;;;;16.90;14.00;;;;;;;3.90;68.61;101779.66;106773;1304;22151;-83
2022/12/01 08:18:40;;;;;;;18.30;14.00;;;;;;;3.93;68.38;101776.33;106958;1304;22080;-82
2022/12/01 08:21:09;;;;;;;15.50;13.90;;;;;;;3.93;68.26;101778.23;107090;1298;22084;-83
2022/12/01 08:23:36;;;;;;;17.30;13.50;;;;;;;3.97;68.26;101777.66;106862;1304;22845;-83
2022/12/01 08:26:11;;;;;;;15.50;13.80;;;;;;;3.98;68.10;101779.63;107012;1304;22097;-83
2022/12/01 08:28:38;;;;;;;15.60;14.00;;;;;;;3.93;67.76;101781.55;107044;1304;22120;-83
2022/12/01 08:31:14;;;;;;;15.70;13.40;;;;;;;3.86;67.70;101782.13;106984;1299;22540;-84
2022/12/01 08:33:41;;;;;;;15.00;13.40;;;;;;;3.86;67.96;101778.14;107028;1291;22163;-82
2022/12/01 08:36:08;;;;;;;15.00;13.40;;;;;;;3.86;67.80;101778.33;106961;1304;22235;-83
2022/12/01 08:38:34;;;;;;;21.00;13.60;;;;;;;3.83;67.97;101781.11;107240;1304;22069;-82
2022/12/01 08:41:06;;;;;;;15.60;12.80;;;;;;;3.82;67.95;101780.06;107179;1304;22056;-84
2022/12/01 08:43:38;;;;;;;14.10;11.90;;;;;;;3.81;67.81;101787.51;107107;1304;22082;-84
2022/12/01 08:46:35;;;;;;;21.10;17.10;;;;;;;3.86;67.93;101788.92;107118;1300;22175;-83
2022/12/01 08:49:05;;;;;;;14.80;12.60;;;;;;;3.89;67.72;101790.77;106737;1310;22114;-84
2022/12/01 08:51:32;;;;;;;17.90;13.40;;;;;;;3.89;67.74;101788.52;106731;1310;22121;-83
2022/12/01 08:54:00;;;;;;;14.50;12.60;;;;;;;3.95;67.73;101790.00;106979;1309;22159;-83
2022/12/01 08:56:31;;;;;;;16.70;12.80;;;;;;;3.93;67.61;101792.01;106782;1310;22275;-84
2022/12/01 08:58:57;;;;;;;16.00;13.20;;;;;;;3.91;67.51;101792.80;106709;1310;22236;-86
2022/12/01 09:01:25;;;;;;;20.30;13.80;;;;;;;3.90;67.66;101796.92;106779;1309;22233;-83
2022/12/01 09:04:04;;;;;;;14.40;11.90;;;;;;;3.90;67.48;101794.67;106748;1310;22157;-82
2022/12/01 09:06:36;;;;;;;15.70;13.60;;;;;;;3.84;67.58;101797.05;106627;1304;22082;-83
2022/12/01 09:09:03;;;;;;;15.30;13.50;;;;;;;3.80;67.55;101796.02;106973;1304;22069;-83
2022/12/01 09:11:31;;;;;;;21.70;18.40;;;;;;;3.77;67.75;101797.45;106661;1310;22119;-83
2022/12/01 09:13:59;;;;;;;19.90;14.70;;;;;;;3.76;67.90;101798.43;106342;1309;22122;-83
2022/12/01 09:16:26;;;;;;;18.50;15.80;;;;;;;3.74;67.99;101797.15;106783;1309;22208;-84
2022/12/01 09:18:53;;;;;;;20.60;14.40;;;;;;;3.77;68.01;101798.33;106670;1310;22874;-83
2022/12/01 09:21:26;;;;;;;16.80;13.70;;;;;;;3.76;68.04;101803.66;106615;1309;22151;-83
2022/12/01 09:23:53;;;;;;;19.50;13.70;;;;;;;3.78;68.12;101798.54;106532;1309;22161;-84
2022/12/01 09:26:20;;;;;;;16.30;14.30;;;;;;;3.79;68.20;101794.90;106404;1310;22118;-84
2022/12/01 09:28:51;;;;;;;17.80;15.40;;;;;;;3.84;68.32;101786.58;106662;1304;22375;-83
2022/12/01 09:31:19;;;;;;;18.20;15.70;;;;;;;3.84;68.18;101789.90;106922;1304;22100;-83
2022/12/01 09:33:46;;;;;;;18.40;16.10;;;;;;;3.86;68.28;101787.36;106342;1310;22113;-83
2022/12/01 09:36:13;;;;;;;20.20;16.50;;;;;;;3.89;68.45;101786.58;106322;1312;22159;-82
2022/12/01 09:38:40;;;;;;;22.30;18.00;;;;;;;3.91;68.37;101787.23;105648;1317;22139;-83
2022/12/01 09:41:31;;;;;;;23.50;15.80;;;;;;;3.95;68.52;101791.37;105241;1321;22172;-83
2022/12/01 09:44:12;;;;;;;20.80;15.60;;;;;;;3.93;68.33;101786.43;105227;1321;22222;-84
2022/12/01 09:46:45;;;;;;;20.50;17.00;;;;;;;3.92;68.45;101786.04;105302;1321;22117;-83
2022/12/01 09:49:21;;;;;;;23.60;16.80;;;;;;;3.89;68.37;101786.43;105222;1321;22386;-82
2022/12/01 09:51:51;;;;;;;21.50;15.90;;;;;;;3.79;68.30;101786.89;105451;1317;22469;-82
2022/12/01 09:54:18;;;;;;;21.80;15.60;;;;;;;3.75;68.39;101786.55;105969;1317;22153;-83
2022/12/01 09:56:51;;;;;;;20.50;16.40;;;;;;;3.75;68.69;101783.41;106268;1311;22145;-83
2022/12/01 09:59:22;;;;;;;19.30;16.40;;;;;;;3.80;68.95;101781.70;106886;1304;22061;-83
2022/12/01 10:02:02;;;;;;;18.90;16.10;;;;;;;3.83;68.81;101781.49;106819;1304;22723;-83
2022/12/01 10:04:40;;;;;;;19.50;16.60;;;;;;;3.84;68.83;101781.38;106954;1304;22031;-83
2022/12/01 10:07:16;;;;;;;22.50;17.10;;;;;;;3.79;68.70;101778.00;106298;1308;22103;-83
2022/12/01 10:09:57;;;;;;;23.10;16.90;;;;;;;3.78;68.92;101776.77;106687;1310;22127;-83
2022/12/01 10:12:28;;;;;;;20.20;16.30;;;;;;;3.73;68.79;101774.27;106571;1310;22064;-83
2022/12/01 10:15:12;;;;;;;23.70;15.70;;;;;;;3.73;69.11;101772.02;106798;1310;22079;-84
2022/12/01 10:17:57;;;;;;;19.30;16.20;;;;;;;3.76;69.07;101773.17;106710;1309;22142;-82
2022/12/01 10:20:37;;;;;;;22.30;16.00;;;;;;;3.74;69.06;101775.71;106588;1310;22981;-85
2022/12/01 10:23:21;;;;;;;21.70;15.50;;;;;;;3.76;69.20;101771.59;106734;1298;22131;-85
2022/12/01 10:26:04;;;;;;;18.40;15.80;;;;;;;3.76;69.15;101768.11;106947;1304;22064;-83
2022/12/01 10:28:57;;;;;;;20.10;15.10;;;;;;;3.78;69.15;101765.94;106772;1304;22151;-84
2022/12/01 10:31:33;;;;;;;22.40;16.70;;;;;;;3.76;69.07;101767.09;106987;1304;22076;-86
2022/12/01 10:34:05;;;;;;;20.10;16.00;;;;;;;3.76;69.16;101761.16;107057;1304;22084;-84
2022/12/01 10:36:33;;;;;;;20.30;15.80;;;;;;;3.74;69.11;101756.73;106525;1310;22209;-83
2022/12/01 10:39:03;;;;;;;21.50;15.70;;;;;;;3.71;69.24;101752.96;106550;1312;23762;-83
2022/12/01 10:41:33;;;;;;;20.80;16.80;;;;;;;3.74;69.30;101749.73;106328;1311;22253;-83
2022/12/01 10:44:04;;;;;;;24.80;18.30;;;;;;;3.76;69.23;101746.67;106320;1312;22363;-84
2022/12/01 10:46:36;;;;;;;22.80;16.00;;;;;;;3.78;69.17;101747.65;106398;1310;22262;-83
2022/12/01 10:49:11;;;;;;;20.50;15.80;;;;;;;3.79;69.13;101747.18;106427;1310;22408;-83
2022/12/01 10:51:53;;;;;;;24.40;16.30;;;;;;;3.80;68.81;101744.77;106341;1307;22141;-83
2022/12/01 10:54:30;;;;;;;21.30;16.70;;;;;;;3.79;68.75;101745.09;106592;1304;22827;-83
2022/12/01 10:56:57;;;;;;;20.50;15.10;;;;;;;3.79;68.69;101739.48;106916;1304;22049;-83
2022/12/01 10:59:27;;;;;;;21.70;15.80;;;;;;;3.78;68.60;101737.88;107019;1304;22136;-83
2022/12/01 11:01:56;;;;;;;20.50;15.10;;;;;;;3.79;68.56;101741.59;107071;1304;22081;-83
2022/12/01 11:04:43;;;;;;;21.10;15.60;;;;;;;3.81;68.62;101736.59;106967;1304;22051;-84
2022/12/01 11:07:17;;;;;;;20.80;16.30;;;;;;;3.86;68.56;101732.98;107071;1280;22045;-82
2022/12/01 11:09:47;;;;;;;21.90;16.80;;;;;;;3.89;68.46;101729.11;106859;1304;22106;-83
2022/12/01 11:12:18;;;;;;;19.90;17.00;;;;;;;3.94;68.26;101728.59;106903;1292;22683;-83
2022/12/01 11:14:52;;;;;;;22.20;16.20;;;;;;;3.94;68.06;101728.43;107082;1304;22661;-83
2022/12/01 11:17:29;;;;;;;22.00;16.00;;;;;;;3.93;67.91;101729.41;106858;1304;22704;-83
2022/12/01 11:19:57;;;;;;;20.90;17.50;;;;;;;3.91;67.84;101724.65;106897;1304;22071;-84
2022/12/01 11:22:28;;;;;;;23.70;18.10;;;;;;;3.94;67.92;101723.89;106878;1303;22036;-83
2022/12/01 11:25:04;;;;;;;22.60;17.70;;;;;;;3.92;67.72;101722.94;106852;1304;22761;-83
2022/12/01 11:27:36;;;;;;;22.80;18.10;;;;;;;3.85;67.63;101720.41;106551;1309;22131;-82
2022/12/01 11:30:06;;;;;;;25.70;19.80;;;;;;;3.83;67.75;101720.67;106629;1309;22882;-83